createdAt,value
2017-08-01T04:30:36.711Z,90.30
2017-08-01T04:33:04.970Z,90.20
2017-08-01T04:35:33.234Z,90.10
2017-08-01T04:38:01.552Z,90.00
2017-08-01T04:40:29.811Z,90.00
2017-08-01T04:42:58.102Z,90.10
2017-08-01T04:45:26.697Z,90.00
2017-08-01T04:47:55.050Z,90.00
2017-08-01T04:50:23.423Z,90.20
2017-08-01T04:52:51.711Z,89.60
2017-08-01T04:55:20.075Z,89.30
2017-08-01T04:57:48.350Z,88.60
2017-08-01T05:00:16.679Z,88.50
2017-08-01T05:02:45.006Z,88.30
2017-08-01T05:05:13.382Z,88.60
2017-08-01T05:07:41.718Z,88.40
2017-08-01T05:10:10.035Z,88.10
2017-08-01T05:12:38.361Z,88.00
2017-08-01T05:15:07.423Z,88.50
2017-08-01T05:17:35.666Z,88.40
2017-08-01T05:20:04.078Z,88.80
2017-08-01T05:22:33.370Z,88.70
2017-08-01T05:25:02.582Z,86.60
2017-08-01T05:27:30.851Z,84.70
2017-08-01T05:29:59.423Z,84.00
2017-08-01T05:32:27.713Z,81.20
2017-08-01T05:34:56.007Z,80.20
2017-08-01T05:37:25.028Z,80.70
2017-08-01T05:39:53.282Z,80.70
2017-08-01T05:42:23.250Z,77.00
2017-08-01T05:44:51.506Z,77.00
2017-08-01T05:47:19.799Z,76.40
2017-08-01T05:49:48.311Z,79.20
2017-08-01T05:52:17.513Z,80.00
2017-08-01T05:54:45.786Z,80.50
2017-08-01T05:57:14.117Z,80.60
2017-08-01T05:59:42.415Z,82.10
2017-08-01T06:02:10.671Z,83.20
2017-08-01T06:04:38.951Z,83.30
2017-08-01T06:07:07.243Z,83.50
2017-08-01T06:09:35.522Z,83.20
2017-08-01T06:12:03.916Z,83.40
2017-08-01T06:14:32.150Z,82.80
2017-08-01T06:17:00.438Z,82.80
2017-08-01T06:19:28.723Z,82.80
2017-08-01T06:21:57.006Z,83.00
2017-08-01T06:24:25.262Z,81.80
2017-08-01T06:26:53.567Z,80.80
2017-08-01T06:29:21.931Z,80.40
2017-08-01T15:02:04.183Z,56.10
2017-08-01T15:04:32.464Z,56.10
2017-08-01T15:07:00.752Z,56.00
2017-08-01T15:09:29.126Z,56.30
2017-08-01T15:11:57.508Z,56.20
2017-08-01T15:14:25.768Z,57.30
2017-08-01T15:16:54.276Z,58.70
2017-08-01T15:19:22.638Z,59.40
2017-08-01T15:21:50.900Z,59.50
2017-08-01T15:24:19.187Z,59.00
2017-08-01T15:26:47.450Z,59.40
2017-08-01T15:29:15.727Z,60.30
2017-08-01T15:31:43.999Z,61.00
2017-08-01T15:34:12.299Z,61.00
2017-08-01T15:36:40.651Z,61.70
2017-08-01T15:39:08.993Z,62.00
2017-08-01T15:41:38.011Z,61.70
2017-08-01T15:44:06.295Z,61.70
2017-08-01T15:46:34.703Z,61.70
2017-08-01T15:49:02.991Z,62.30
2017-08-01T15:51:31.370Z,62.10
2017-08-01T15:53:59.740Z,61.60
2017-08-01T15:56:27.992Z,61.10
2017-08-01T15:58:56.279Z,62.10
2017-08-01T16:01:24.532Z,62.50
2017-08-01T16:03:52.850Z,63.10
2017-08-01T16:06:21.111Z,62.10
2017-08-01T16:08:49.392Z,62.90
2017-08-01T16:11:17.651Z,63.10
2017-08-01T16:13:45.934Z,62.80
2017-08-01T16:16:14.187Z,63.70
2017-08-01T16:18:42.463Z,64.50
2017-08-01T16:21:10.776Z,65.70
2017-08-01T16:23:39.037Z,66.80
2017-08-01T16:26:07.290Z,67.20
2017-08-01T16:28:35.588Z,67.90
2017-08-01T16:31:03.880Z,68.70
2017-08-01T16:33:32.139Z,69.30
2017-08-01T16:36:00.491Z,70.80
2017-08-01T16:38:28.808Z,71.20
2017-08-01T16:40:57.094Z,71.90
2017-08-01T16:43:25.470Z,71.90
2017-08-01T16:45:53.779Z,72.80
2017-08-01T16:48:22.943Z,74.80
2017-08-01T16:50:51.223Z,74.80
2017-08-01T16:53:19.602Z,75.40
2017-08-01T16:55:47.875Z,75.80
2017-08-01T16:58:16.905Z,79.60
2017-08-01T17:00:45.211Z,79.60
2017-08-01T17:03:13.467Z,82.50
2017-08-01T17:05:41.768Z,84.30
2017-08-01T17:08:10.064Z,83.80
2017-08-01T17:10:38.355Z,83.00
2017-08-01T17:13:06.616Z,83.70
2017-08-01T17:15:35.204Z,82.70
2017-08-01T17:18:03.586Z,83.10
2017-08-01T17:20:31.971Z,82.90
2017-08-01T17:23:00.231Z,82.70
2017-08-01T17:25:28.515Z,83.90
2017-08-01T17:27:56.779Z,85.00
2017-08-01T17:30:26.004Z,84.20
2017-08-01T17:32:55.039Z,86.80
2017-08-01T17:35:23.303Z,86.80
2017-08-01T17:37:51.625Z,87.10
2017-08-01T17:40:19.989Z,87.90
2017-08-01T17:42:48.244Z,87.60
2017-08-01T17:45:16.544Z,88.10
2017-08-01T17:47:44.823Z,89.00
2017-08-01T17:50:13.116Z,88.20
2017-08-01T17:52:41.621Z,87.70
2017-08-01T17:55:11.003Z,88.50
2017-08-01T17:57:39.283Z,88.40
2017-08-01T18:00:07.754Z,88.70
2017-08-01T18:02:36.027Z,89.80
2017-08-01T18:05:04.290Z,90.10
2017-08-01T18:07:33.382Z,90.50
2017-08-01T18:10:01.797Z,90.30
2017-08-01T18:12:30.992Z,91.20
2017-08-01T18:15:00.068Z,91.30
2017-08-01T18:17:28.363Z,91.30
2017-08-01T18:19:56.720Z,91.40
2017-08-01T18:22:25.095Z,91.50
2017-08-01T18:24:53.488Z,91.50
2017-08-01T18:27:21.867Z,91.00
2017-08-01T18:29:51.108Z,91.40
2017-08-01T18:32:19.428Z,91.30
2017-08-01T18:34:47.696Z,91.70
2017-08-01T18:37:15.980Z,92.00
2017-08-01T18:39:44.334Z,92.30
2017-08-01T18:42:12.753Z,92.00
2017-08-01T18:44:41.008Z,91.60
2017-08-01T18:47:09.324Z,91.60
2017-08-01T18:49:38.366Z,92.80
2017-08-01T18:52:06.651Z,92.70
2017-08-01T18:54:35.259Z,92.90
2017-08-01T18:57:04.376Z,92.70
2017-08-01T18:59:33.543Z,92.30
2017-08-01T19:02:01.857Z,92.20
2017-08-01T19:04:31.035Z,93.10
2017-08-01T19:07:00.131Z,93.10
2017-08-01T19:09:29.603Z,93.10
2017-08-01T19:14:29.762Z,93.10
2017-08-01T19:16:58.132Z,93.10
2017-08-01T19:19:28.299Z,93.20
2017-08-01T19:21:56.601Z,92.90
2017-08-01T19:24:24.868Z,92.90
2017-08-01T19:26:54.001Z,93.50
2017-08-01T19:29:22.384Z,92.70
2017-08-01T19:31:51.586Z,92.50
2017-08-01T19:34:19.852Z,91.20
2017-08-01T19:36:48.225Z,90.10
2017-08-01T19:39:16.934Z,90.00
2017-08-01T19:41:45.814Z,90.90
2017-08-01T19:44:14.604Z,89.80
2017-08-01T19:46:44.016Z,91.20
2017-08-01T19:49:12.486Z,91.20
2017-08-01T19:51:40.954Z,90.80
2017-08-01T19:54:09.336Z,90.90
2017-08-01T19:56:38.059Z,91.60
2017-08-01T19:59:06.385Z,91.50
2017-08-01T20:01:34.673Z,90.80
2017-08-01T20:04:03.043Z,90.30
2017-08-01T20:06:31.343Z,90.40
2017-08-01T20:09:00.538Z,91.20
2017-08-01T20:11:29.007Z,91.10
2017-08-01T20:13:57.275Z,90.60
2017-08-01T20:16:25.777Z,91.20
2017-08-01T20:18:54.074Z,92.10
2017-08-01T20:21:23.353Z,93.00
2017-08-01T20:23:51.714Z,93.00
2017-08-01T20:26:20.416Z,93.30
2017-08-01T20:28:48.898Z,93.20
2017-08-01T20:31:17.213Z,92.90
2017-08-01T20:33:46.280Z,92.70
2017-08-01T20:36:15.356Z,93.30
2017-08-01T20:38:44.048Z,93.10
2017-08-01T20:41:12.418Z,93.40
2017-08-01T20:43:40.731Z,93.70
2017-08-01T20:46:09.807Z,93.30
2017-08-01T20:48:38.171Z,93.20
2017-08-01T20:51:06.558Z,93.60
2017-08-01T20:53:34.924Z,93.50
2017-08-01T20:56:03.200Z,93.60
2017-08-01T20:58:31.564Z,93.60
2017-08-01T21:00:59.855Z,93.50
2017-08-01T21:03:28.236Z,93.60
2017-08-01T21:05:56.518Z,94.40
2017-08-01T21:08:24.897Z,94.60
2017-08-01T21:10:53.147Z,94.40
2017-08-01T21:13:21.459Z,94.30
2017-08-01T21:15:49.827Z,94.10
2017-08-01T21:18:18.094Z,94.40
2017-08-01T21:20:46.527Z,94.70
2017-08-01T21:23:15.677Z,95.50
2017-08-01T21:25:43.922Z,95.50
2017-08-01T21:28:12.315Z,95.90
2017-08-01T21:30:40.812Z,96.10
2017-08-01T21:33:09.079Z,95.90
2017-08-01T21:35:37.454Z,95.90
2017-08-01T21:38:05.718Z,95.80
2017-08-01T21:40:33.979Z,96.00
2017-08-01T21:43:02.283Z,96.30
2017-08-01T21:45:30.568Z,96.20
2017-08-01T21:47:58.879Z,95.80
2017-08-01T21:50:27.206Z,95.70
2017-08-01T21:52:55.482Z,95.60
2017-08-01T21:55:24.091Z,95.20
2017-08-01T21:57:52.442Z,95.00
2017-08-01T22:00:20.839Z,95.10
2017-08-01T22:02:49.083Z,94.90
2017-08-01T22:05:17.388Z,94.70
2017-08-01T22:07:45.652Z,94.60
2017-08-01T22:10:13.964Z,94.80
2017-08-01T22:12:42.986Z,94.80
2017-08-01T22:15:11.246Z,94.70
2017-08-01T22:17:39.530Z,94.30
2017-08-01T22:20:07.852Z,94.00
2017-08-01T22:22:36.346Z,93.90
2017-08-01T22:25:04.704Z,94.00
2017-08-01T22:27:32.982Z,94.00
2017-08-01T22:30:01.378Z,94.30
2017-08-01T22:32:29.634Z,94.50
2017-08-01T22:34:58.246Z,94.30
2017-08-01T22:37:26.599Z,93.90
2017-08-01T22:39:54.978Z,94.10
2017-08-01T22:42:23.279Z,94.10
2017-08-01T22:44:51.547Z,94.30
